createdAt,value
2017-10-16T00:02:32.300Z,80.53
2017-10-16T00:05:07.325Z,80.44
2017-10-16T00:07:42.949Z,80.48
2017-10-16T00:10:17.809Z,80.61
2017-10-16T00:12:52.652Z,80.85
2017-10-16T00:15:27.560Z,81.19
2017-10-16T00:18:02.713Z,81.52
2017-10-16T00:20:37.422Z,81.03
2017-10-16T00:23:12.277Z,81.07
2017-10-16T00:25:47.001Z,81.08
2017-10-16T00:28:21.733Z,81.28
2017-10-16T00:30:56.772Z,81.70
2017-10-16T00:33:31.417Z,81.47
2017-10-16T00:36:06.141Z,81.37
2017-10-16T00:38:40.969Z,81.43
2017-10-16T00:41:15.825Z,81.66
2017-10-16T00:43:50.549Z,81.69
2017-10-16T00:46:25.261Z,81.63
2017-10-16T00:48:59.911Z,81.79
2017-10-16T00:51:34.708Z,82.04
2017-10-16T00:54:09.889Z,82.03
2017-10-16T00:56:44.125Z,82.09
2017-10-16T00:59:18.613Z,82.08
2017-10-16T01:01:53.857Z,82.13
2017-10-16T01:04:28.577Z,82.24
2017-10-16T01:07:03.413Z,82.52
2017-10-16T01:09:38.049Z,82.74
2017-10-16T01:12:12.840Z,82.76
2017-10-16T01:14:47.661Z,82.87
2017-10-16T01:17:22.057Z,82.65
2017-10-16T01:19:56.706Z,82.71
2017-10-16T01:22:31.281Z,82.47
2017-10-16T01:25:06.051Z,82.45
2017-10-16T01:27:40.849Z,82.59
2017-10-16T01:30:15.276Z,82.35
2017-10-16T01:32:50.101Z,82.42
2017-10-16T01:35:24.962Z,82.47
2017-10-16T01:37:59.417Z,82.45
2017-10-16T01:40:34.300Z,82.66
2017-10-16T01:43:09.085Z,82.69
2017-10-16T01:45:43.960Z,83.07
2017-10-16T01:48:18.597Z,83.29
2017-10-16T01:50:53.545Z,83.71
2017-10-16T01:53:28.649Z,83.54
2017-10-16T01:56:02.908Z,83.65
2017-10-16T01:58:37.898Z,83.55
2017-10-16T02:01:12.092Z,83.56
2017-10-16T02:03:47.218Z,83.56
2017-10-16T02:06:21.685Z,83.67
2017-10-16T02:08:56.897Z,83.75
2017-10-16T02:11:31.766Z,83.97
2017-10-16T02:14:06.829Z,83.77
2017-10-16T02:16:41.677Z,83.84
2017-10-16T02:19:16.516Z,84.38
2017-10-16T02:21:51.074Z,85.09
2017-10-16T02:24:25.700Z,85.70
2017-10-16T02:27:00.485Z,85.83
2017-10-16T02:29:35.226Z,85.85
2017-10-16T02:32:10.169Z,85.89
2017-10-16T02:34:44.903Z,86.07
2017-10-16T02:37:19.833Z,86.31
2017-10-16T02:39:54.557Z,86.51
2017-10-16T02:42:29.359Z,86.71
2017-10-16T02:45:04.137Z,86.82
2017-10-16T02:47:39.016Z,86.70
2017-10-16T02:50:13.849Z,86.81
2017-10-16T02:52:49.658Z,87.05
2017-10-16T02:55:24.280Z,86.84
2017-10-16T02:57:58.922Z,86.55
2017-10-16T03:00:33.919Z,86.33
2017-10-16T03:03:08.733Z,85.93
2017-10-16T03:05:43.574Z,85.67
2017-10-16T03:08:18.388Z,85.71
2017-10-16T03:10:53.236Z,85.54
2017-10-16T03:13:28.078Z,85.86
2017-10-16T03:16:02.785Z,85.92
2017-10-16T03:18:37.634Z,86.13
2017-10-16T03:21:12.460Z,85.71
2017-10-16T03:23:47.197Z,85.74
2017-10-16T03:26:22.097Z,85.70
2017-10-16T03:28:56.840Z,85.55
2017-10-16T03:31:31.600Z,85.79
2017-10-16T03:34:06.425Z,86.02
2017-10-16T03:36:41.165Z,85.84
2017-10-16T03:39:15.824Z,85.36
2017-10-16T03:41:50.745Z,85.57
2017-10-16T03:44:25.573Z,85.65
2017-10-16T03:47:00.404Z,85.80
2017-10-16T03:49:35.071Z,86.27
2017-10-16T03:52:09.877Z,85.92
2017-10-16T03:54:44.711Z,85.70
2017-10-16T03:57:19.417Z,85.40
2017-10-16T03:59:54.109Z,85.39
2017-10-16T04:02:29.043Z,85.47
2017-10-16T04:05:03.537Z,85.55
2017-10-16T04:07:38.606Z,85.58
2017-10-16T04:10:13.557Z,85.80
2017-10-16T04:12:48.262Z,85.90
2017-10-16T04:15:23.138Z,85.94
2017-10-16T04:17:57.945Z,86.25
2017-10-16T04:20:32.792Z,86.81
2017-10-16T04:23:07.575Z,86.93
2017-10-16T04:25:42.486Z,86.85
2017-10-16T04:28:17.472Z,86.57
2017-10-16T04:30:52.593Z,86.38
2017-10-16T04:33:27.842Z,86.47
2017-10-16T04:36:02.714Z,86.33
2017-10-16T04:38:38.301Z,86.55
2017-10-16T04:41:13.445Z,86.72
2017-10-16T04:43:48.089Z,86.96
2017-10-16T04:46:22.765Z,86.97
2017-10-16T04:48:57.549Z,87.16
2017-10-16T04:51:32.482Z,87.07
2017-10-16T04:54:07.345Z,87.28
2017-10-16T04:56:42.089Z,86.93
2017-10-16T04:59:16.793Z,87.08
2017-10-16T05:01:51.545Z,87.55
2017-10-16T05:04:26.406Z,87.59
2017-10-16T05:07:01.149Z,87.92
2017-10-16T05:09:36.008Z,87.85
2017-10-16T05:12:10.841Z,88.07
2017-10-16T05:14:45.553Z,87.67
2017-10-16T05:17:20.437Z,87.43
2017-10-16T05:19:55.253Z,87.04
2017-10-16T05:22:30.148Z,86.79
2017-10-16T05:25:04.930Z,86.91
2017-10-16T05:27:39.549Z,86.70
2017-10-16T05:30:14.513Z,86.64
2017-10-16T05:32:49.308Z,86.81
2017-10-16T05:35:24.164Z,86.74
2017-10-16T05:37:59.021Z,86.81
2017-10-16T05:40:33.834Z,86.78
2017-10-16T05:43:08.678Z,86.71
2017-10-16T05:45:43.142Z,87.04
2017-10-16T05:48:18.277Z,87.17
2017-10-16T05:50:53.165Z,86.91
2017-10-16T05:53:27.884Z,87.08
2017-10-16T05:56:03.025Z,87.11
2017-10-16T05:58:37.826Z,87.16
2017-10-16T06:01:12.481Z,87.15
2017-10-16T06:03:47.349Z,86.96
2017-10-16T06:06:21.819Z,86.86
2017-10-16T06:08:56.563Z,86.90
2017-10-16T06:11:31.561Z,86.67
2017-10-16T06:14:06.301Z,86.32
2017-10-16T06:16:40.461Z,86.55
2017-10-16T06:19:15.597Z,86.63
2017-10-16T06:21:50.285Z,86.84
2017-10-16T06:24:24.884Z,87.13
2017-10-16T06:26:59.647Z,87.14
2017-10-16T06:29:34.368Z,87.19
2017-10-16T06:32:09.153Z,86.92
2017-10-16T06:34:44.286Z,86.89
2017-10-16T06:37:19.083Z,86.80
2017-10-16T06:39:53.829Z,86.65
2017-10-16T06:42:28.644Z,86.54
2017-10-16T06:45:03.044Z,86.42
2017-10-16T06:47:37.513Z,86.52
2017-10-16T06:50:12.651Z,86.23
2017-10-16T06:52:47.291Z,86.06
2017-10-16T06:55:21.821Z,86.02
2017-10-16T06:57:56.444Z,85.92
2017-10-16T07:00:30.728Z,85.94
2017-10-16T07:03:05.802Z,85.89
2017-10-16T07:05:40.746Z,85.97
2017-10-16T07:08:15.350Z,86.16
2017-10-16T07:10:50.107Z,86.24
2017-10-16T07:13:24.838Z,86.24
2017-10-16T07:15:59.610Z,85.97
2017-10-16T07:18:35.073Z,85.50
2017-10-16T07:21:09.941Z,85.08
2017-10-16T07:23:44.473Z,84.52
2017-10-16T07:26:18.850Z,83.91
2017-10-16T07:28:54.078Z,83.62
2017-10-16T07:31:28.458Z,83.54
2017-10-16T07:34:03.489Z,83.50
2017-10-16T07:36:38.234Z,83.56
2017-10-16T07:39:12.690Z,83.12
2017-10-16T07:41:47.653Z,82.95
2017-10-16T07:44:22.497Z,82.72
2017-10-16T07:46:57.109Z,81.65
2017-10-16T07:49:32.035Z,81.42
2017-10-16T07:52:06.828Z,80.58
2017-10-16T07:54:41.586Z,80.38
2017-10-16T07:57:16.341Z,79.97
2017-10-16T07:59:51.069Z,79.05
2017-10-16T08:02:25.747Z,78.42
2017-10-16T08:05:00.481Z,77.77
2017-10-16T08:07:35.662Z,77.48
2017-10-16T08:10:10.077Z,77.11
2017-10-16T08:12:44.905Z,76.84
2017-10-16T08:15:20.997Z,76.06
2017-10-16T08:17:55.437Z,75.61
2017-10-16T08:20:30.255Z,75.60
2017-10-16T08:23:04.654Z,74.97
2017-10-16T08:25:39.134Z,74.17
2017-10-16T08:28:13.935Z,73.01
2017-10-16T08:30:48.278Z,73.29
2017-10-16T08:33:23.265Z,73.82
2017-10-16T08:35:57.903Z,73.41
2017-10-16T08:38:32.684Z,72.39
2017-10-16T08:41:07.330Z,72.14
2017-10-16T08:43:42.202Z,71.88
2017-10-16T08:46:17.151Z,70.37
2017-10-16T08:48:51.862Z,70.63
2017-10-16T08:51:26.525Z,70.84
2017-10-16T08:54:01.114Z,70.33
2017-10-16T08:56:35.782Z,70.30
2017-10-16T08:59:10.474Z,70.01
2017-10-16T09:01:45.562Z,69.36
2017-10-16T09:04:19.925Z,69.39
2017-10-16T09:06:54.398Z,68.60
2017-10-16T09:09:29.185Z,67.38
2017-10-16T09:12:03.927Z,68.33
2017-10-16T09:14:38.758Z,68.72
2017-10-16T09:17:13.197Z,69.00
2017-10-16T09:19:48.104Z,68.04
2017-10-16T09:22:22.645Z,66.09
2017-10-16T09:24:57.305Z,65.84
2017-10-16T09:27:32.078Z,65.18
2017-10-16T09:30:06.661Z,65.42
2017-10-16T09:32:41.342Z,65.02
2017-10-16T09:35:16.274Z,64.91
2017-10-16T09:37:51.353Z,64.15
2017-10-16T09:40:26.024Z,63.32
2017-10-16T09:43:00.868Z,62.25
2017-10-16T09:45:35.382Z,62.40
2017-10-16T09:48:10.114Z,62.14
2017-10-16T09:50:44.941Z,61.72
2017-10-16T09:53:19.644Z,62.03
2017-10-16T09:55:54.297Z,62.16
2017-10-16T09:58:28.841Z,60.78
2017-10-16T10:01:03.622Z,60.04
2017-10-16T10:03:38.289Z,59.69
2017-10-16T10:06:12.914Z,59.37
2017-10-16T10:08:47.532Z,59.63
2017-10-16T10:11:22.220Z,58.75
2017-10-16T10:13:57.057Z,59.13
2017-10-16T10:16:31.831Z,58.66
2017-10-16T10:19:06.889Z,59.88
2017-10-16T10:21:41.698Z,60.53
2017-10-16T10:24:16.328Z,61.54
2017-10-16T10:26:51.081Z,61.74
2017-10-16T10:29:25.885Z,61.66
2017-10-16T10:32:00.554Z,60.10
2017-10-16T10:34:35.269Z,59.62
2017-10-16T10:37:09.996Z,58.32
2017-10-16T10:39:44.473Z,58.55
2017-10-16T10:42:19.385Z,56.70
2017-10-16T10:44:54.161Z,57.16
2017-10-16T10:47:28.890Z,56.54
2017-10-16T10:50:03.462Z,57.45
2017-10-16T10:52:37.954Z,57.22
2017-10-16T10:55:12.629Z,56.09
2017-10-16T10:57:47.454Z,55.93
2017-10-16T11:00:21.597Z,57.12
2017-10-16T11:02:56.657Z,56.83
2017-10-16T11:05:30.932Z,55.98
2017-10-16T11:08:05.773Z,56.43
2017-10-16T11:10:40.569Z,55.76
2017-10-16T11:13:15.233Z,55.17
2017-10-16T11:15:49.920Z,55.09
2017-10-16T11:18:25.257Z,55.74
2017-10-16T11:20:59.361Z,55.93
2017-10-16T11:23:33.949Z,55.38
2017-10-16T11:26:08.830Z,54.81
2017-10-16T11:28:43.590Z,55.79
2017-10-16T11:31:18.150Z,56.02
2017-10-16T11:33:52.857Z,56.75
2017-10-16T11:36:27.433Z,56.74
2017-10-16T11:39:02.017Z,55.90
2017-10-16T11:41:36.794Z,55.15
2017-10-16T11:44:11.580Z,54.60
2017-10-16T11:46:45.989Z,55.23
2017-10-16T11:49:20.905Z,54.45
2017-10-16T11:51:55.374Z,54.54
2017-10-16T11:54:29.868Z,54.61
2017-10-16T11:57:04.820Z,55.35
2017-10-16T11:59:39.818Z,54.04
2017-10-16T12:02:14.408Z,53.75
2017-10-16T12:04:48.973Z,53.28
2017-10-16T12:07:23.420Z,53.13
2017-10-16T12:09:58.149Z,53.71
2017-10-16T12:12:32.625Z,53.15
2017-10-16T12:15:07.103Z,53.58
2017-10-16T12:17:41.703Z,54.05
2017-10-16T12:20:17.125Z,54.57
2017-10-16T12:22:52.156Z,53.99
2017-10-16T12:25:26.316Z,54.26
2017-10-16T12:28:00.872Z,53.82
2017-10-16T12:30:35.486Z,53.60
2017-10-16T12:33:10.161Z,52.12
2017-10-16T12:35:44.839Z,51.68
2017-10-16T12:38:19.316Z,52.40
2017-10-16T12:40:54.074Z,52.88
2017-10-16T12:43:28.792Z,53.72
2017-10-16T12:46:03.316Z,53.15
2017-10-16T12:48:38.287Z,52.42
2017-10-16T12:51:12.757Z,53.14
2017-10-16T12:53:48.036Z,52.49
2017-10-16T12:56:23.464Z,52.35
2017-10-16T12:58:58.077Z,52.78
2017-10-16T13:01:32.633Z,52.73
2017-10-16T13:04:06.827Z,52.78
2017-10-16T13:06:41.465Z,52.71
2017-10-16T13:09:15.987Z,53.44
2017-10-16T13:11:50.998Z,52.44
2017-10-16T13:14:25.645Z,52.73
2017-10-16T13:17:00.337Z,52.73
2017-10-16T13:19:34.689Z,52.87
2017-10-16T13:22:09.128Z,52.79
2017-10-16T13:24:43.934Z,52.19
2017-10-16T13:27:18.761Z,52.44
2017-10-16T13:29:53.548Z,52.79
2017-10-16T13:32:28.104Z,53.41
2017-10-16T13:35:02.744Z,53.58
2017-10-16T13:37:37.313Z,53.59
2017-10-16T13:40:11.781Z,53.47
2017-10-16T13:42:46.441Z,52.60
2017-10-16T13:45:20.937Z,53.13
2017-10-16T13:47:55.346Z,53.26
2017-10-16T13:50:30.100Z,53.00
2017-10-16T13:53:04.741Z,52.22
2017-10-16T13:55:38.951Z,53.05
2017-10-16T13:58:13.580Z,52.67
2017-10-16T14:00:48.481Z,53.01
2017-10-16T14:03:23.056Z,52.63
2017-10-16T14:05:57.640Z,52.67
2017-10-16T14:08:32.328Z,53.41
2017-10-16T14:11:06.840Z,53.39
2017-10-16T14:13:40.988Z,52.52
2017-10-16T14:16:15.848Z,53.33
2017-10-16T14:18:50.557Z,53.29
2017-10-16T14:21:25.209Z,53.61
2017-10-16T14:23:59.780Z,54.08
2017-10-16T14:26:34.517Z,54.28
2017-10-16T14:29:09.184Z,55.11
2017-10-16T14:31:43.642Z,55.12
2017-10-16T14:34:17.772Z,55.14
2017-10-16T14:36:52.713Z,55.83
2017-10-16T14:39:27.392Z,55.21
2017-10-16T14:42:02.029Z,55.49
2017-10-16T14:44:36.626Z,55.76
2017-10-16T14:47:11.289Z,56.69
2017-10-16T14:49:45.743Z,56.71
2017-10-16T14:52:20.404Z,57.41
2017-10-16T14:54:55.150Z,57.24
2017-10-16T14:57:29.636Z,57.63
2017-10-16T15:00:04.399Z,58.61
2017-10-16T15:02:38.943Z,58.37
2017-10-16T15:05:13.740Z,58.43
2017-10-16T15:07:48.224Z,58.97
2017-10-16T15:10:22.668Z,58.96
2017-10-16T15:12:57.612Z,59.54
2017-10-16T15:15:32.262Z,59.80
2017-10-16T15:18:07.053Z,59.84
2017-10-16T15:20:41.996Z,60.73
2017-10-16T15:23:16.487Z,61.06
2017-10-16T15:25:51.153Z,61.55
2017-10-16T15:28:25.723Z,61.13
2017-10-16T15:30:59.909Z,61.02
2017-10-16T15:33:34.672Z,61.69
2017-10-16T15:36:09.498Z,62.31
2017-10-16T15:38:44.176Z,62.85
2017-10-16T15:41:18.779Z,63.29
2017-10-16T15:43:53.433Z,63.54
2017-10-16T15:46:28.022Z,63.83
2017-10-16T15:49:02.613Z,63.89
2017-10-16T15:51:37.199Z,63.82
2017-10-16T15:54:12.066Z,63.69
2017-10-16T15:56:46.406Z,63.40
2017-10-16T15:59:20.848Z,63.44
2017-10-16T16:01:55.428Z,63.83
2017-10-16T16:04:30.136Z,63.95
2017-10-16T16:07:04.776Z,64.43
2017-10-16T16:09:39.372Z,64.87
2017-10-16T16:12:13.835Z,64.94
2017-10-16T16:14:48.584Z,65.23
2017-10-16T16:17:23.620Z,65.72
2017-10-16T16:19:58.160Z,65.83
2017-10-16T16:22:32.932Z,66.14
2017-10-16T16:25:07.670Z,66.42
2017-10-16T16:27:41.979Z,66.78
2017-10-16T16:30:16.677Z,66.81
2017-10-16T16:32:51.160Z,66.91
2017-10-16T16:35:25.596Z,66.97
2017-10-16T16:38:00.285Z,67.10
2017-10-16T16:40:34.843Z,67.16
2017-10-16T16:43:09.536Z,67.41
2017-10-16T16:45:44.505Z,67.83
2017-10-16T16:48:18.979Z,68.18
2017-10-16T16:50:53.969Z,68.16
2017-10-16T16:53:28.695Z,68.68
2017-10-16T16:56:03.536Z,68.82
2017-10-16T16:58:38.351Z,68.88
2017-10-16T17:01:12.767Z,68.87
2017-10-16T17:03:47.280Z,68.95
2017-10-16T17:06:21.912Z,69.18
2017-10-16T17:08:56.568Z,69.27
2017-10-16T17:11:31.168Z,69.35
2017-10-16T17:14:05.875Z,69.34
2017-10-16T17:16:40.596Z,69.50
2017-10-16T17:19:15.791Z,69.79
2017-10-16T17:21:50.151Z,70.25
2017-10-16T17:24:25.335Z,70.51
2017-10-16T17:26:59.722Z,70.81
2017-10-16T17:29:35.047Z,70.97
2017-10-16T17:32:09.188Z,71.15
2017-10-16T17:34:44.120Z,71.08
2017-10-16T17:37:18.698Z,71.11
2017-10-16T17:39:53.520Z,71.03
2017-10-16T17:42:28.851Z,71.02
2017-10-16T17:45:03.345Z,71.35
2017-10-16T17:47:38.178Z,71.69
2017-10-16T17:50:12.944Z,71.92
2017-10-16T17:52:47.645Z,71.94
2017-10-16T17:55:22.826Z,72.28
2017-10-16T17:57:57.651Z,72.22
2017-10-16T18:00:32.324Z,72.45
2017-10-16T18:03:07.521Z,73.34
2017-10-16T18:05:42.113Z,74.10
2017-10-16T18:08:17.029Z,74.44
2017-10-16T18:10:51.762Z,75.55
2017-10-16T18:13:26.647Z,75.91
2017-10-16T18:16:01.921Z,77.06
2017-10-16T18:18:36.557Z,77.85
2017-10-16T18:21:11.380Z,78.03
2017-10-16T18:23:46.222Z,77.72
2017-10-16T18:26:21.357Z,77.73
2017-10-16T18:28:56.115Z,77.80
2017-10-16T18:31:30.868Z,77.79
2017-10-16T18:34:05.833Z,78.15
2017-10-16T18:36:40.305Z,78.04
2017-10-16T18:39:14.889Z,78.28
2017-10-16T18:41:50.233Z,78.38
2017-10-16T18:44:25.412Z,78.82
2017-10-16T18:47:00.117Z,79.05
2017-10-16T18:49:35.395Z,79.34
2017-10-16T18:52:10.201Z,79.41
2017-10-16T18:54:44.884Z,79.26
2017-10-16T18:57:19.801Z,78.98
2017-10-16T18:59:54.511Z,78.61
2017-10-16T19:02:29.653Z,78.38
2017-10-16T19:05:05.465Z,78.48
2017-10-16T19:07:39.791Z,78.15
2017-10-16T19:10:14.635Z,77.73
2017-10-16T19:12:49.587Z,77.17
2017-10-16T19:15:24.221Z,76.86
2017-10-16T19:17:58.979Z,76.56
2017-10-16T19:20:33.354Z,76.48
2017-10-16T19:23:08.646Z,76.53
2017-10-16T19:25:42.962Z,76.22
2017-10-16T19:28:18.843Z,76.06
2017-10-16T19:30:53.731Z,75.70
2017-10-16T19:33:28.655Z,75.64
2017-10-16T19:36:03.248Z,75.50
2017-10-16T19:38:37.475Z,75.24
2017-10-16T19:41:11.552Z,75.27
2017-10-16T19:43:46.192Z,75.37
2017-10-16T19:46:20.871Z,75.35
2017-10-16T19:48:55.735Z,75.54
2017-10-16T19:51:29.747Z,75.36
2017-10-16T19:54:04.583Z,75.87
2017-10-16T19:56:39.589Z,76.03
2017-10-16T19:59:14.640Z,76.22
2017-10-16T20:01:49.476Z,76.10
2017-10-16T20:04:24.205Z,76.03
2017-10-16T20:06:59.240Z,76.09
2017-10-16T20:09:33.870Z,76.17
2017-10-16T20:12:08.726Z,76.32
2017-10-16T20:14:43.348Z,76.13
2017-10-16T20:17:18.364Z,76.24
2017-10-16T20:19:53.188Z,75.99
2017-10-16T20:22:27.780Z,76.00
2017-10-16T20:25:02.604Z,75.94
2017-10-16T20:27:37.259Z,76.00
2017-10-16T20:30:12.139Z,75.87
2017-10-16T20:32:46.877Z,76.00
2017-10-16T20:35:21.565Z,76.11
2017-10-16T20:37:56.413Z,76.14
2017-10-16T20:40:31.043Z,75.76
2017-10-16T20:43:05.784Z,75.33
2017-10-16T20:45:39.805Z,75.12
2017-10-16T20:48:14.525Z,75.03
2017-10-16T20:50:49.450Z,75.17
2017-10-16T20:53:24.119Z,75.19
2017-10-16T20:55:59.192Z,75.39
2017-10-16T20:58:33.875Z,75.45
2017-10-16T21:01:08.034Z,75.38
2017-10-16T21:03:42.784Z,75.53
2017-10-16T21:06:17.507Z,75.36
2017-10-16T21:08:51.928Z,74.69
2017-10-16T21:11:26.528Z,74.32
2017-10-16T21:14:01.288Z,74.04
2017-10-16T21:16:35.497Z,73.97
2017-10-16T21:19:10.365Z,73.96
2017-10-16T21:21:45.473Z,73.99
2017-10-16T21:24:19.859Z,73.76
2017-10-16T21:26:54.311Z,74.31
2017-10-16T21:29:29.245Z,74.48
2017-10-16T21:32:03.190Z,74.62
2017-10-16T21:34:37.791Z,75.13
2017-10-16T21:37:12.685Z,75.26
2017-10-16T21:39:47.307Z,75.25
2017-10-16T21:42:22.018Z,75.27
2017-10-16T21:44:56.796Z,75.45
2017-10-16T21:47:31.444Z,75.45
2017-10-16T21:50:06.133Z,75.08
2017-10-16T21:52:40.913Z,75.17
2017-10-16T21:55:15.867Z,74.70
2017-10-16T21:57:50.739Z,74.33
2017-10-16T22:00:26.296Z,74.03
2017-10-16T22:03:00.388Z,74.04
2017-10-16T22:05:35.054Z,74.08
2017-10-16T22:08:09.868Z,73.77
2017-10-16T22:10:44.972Z,73.67
2017-10-16T22:13:19.533Z,73.50
2017-10-16T22:15:54.440Z,73.21
2017-10-16T22:18:28.662Z,72.96
2017-10-16T22:21:03.529Z,73.22
2017-10-16T22:23:38.340Z,73.03
2017-10-16T22:26:13.348Z,72.85
2017-10-16T22:28:48.391Z,72.68
2017-10-16T22:31:23.250Z,72.30
2017-10-16T22:33:57.856Z,72.09
2017-10-16T22:36:34.436Z,72.30
2017-10-16T22:39:08.658Z,72.55
2017-10-16T22:41:43.100Z,72.85
2017-10-16T22:44:17.167Z,73.06
2017-10-16T22:46:52.001Z,73.07
2017-10-16T22:49:26.849Z,73.40
2017-10-16T22:52:01.566Z,73.32
2017-10-16T22:54:48.883Z,72.73
2017-10-16T22:57:22.975Z,72.84
2017-10-16T22:59:57.417Z,72.90
2017-10-16T23:02:32.692Z,72.55
2017-10-16T23:05:07.347Z,71.67
2017-10-16T23:07:42.062Z,71.27
2017-10-16T23:10:16.874Z,71.14
2017-10-16T23:12:51.936Z,70.92
2017-10-16T23:15:26.760Z,71.10
2017-10-16T23:18:01.626Z,71.46
2017-10-16T23:20:35.773Z,71.84
2017-10-16T23:23:10.693Z,71.84
2017-10-16T23:25:45.416Z,71.29
2017-10-16T23:28:20.159Z,71.72
2017-10-16T23:30:55.218Z,72.02
2017-10-16T23:33:29.984Z,72.01
2017-10-16T23:36:04.856Z,71.82
2017-10-16T23:38:39.840Z,71.49
2017-10-16T23:41:14.688Z,71.56
2017-10-16T23:43:49.551Z,71.72
2017-10-16T23:46:23.661Z,71.66
2017-10-16T23:48:58.518Z,71.72
2017-10-16T23:51:33.336Z,71.55
2017-10-16T23:54:08.145Z,71.58
2017-10-16T23:56:42.926Z,71.63
2017-10-16T23:59:17.387Z,71.51
